Time;durP1;ratioP1;P1;durP2;ratioP2;P2;SDS_P1;SDS_P2;PMS_P1;PMS_P2;Temp;Humidity;BMP_temperature;BMP_pressure;BME280_temperature;BME280_humidity;BME280_pressure;Samples;Min_cycle;Max_cycle;Signal;HPM_P1;HPM_P2
2022/01/14 00:00:31;;;;;;;30.10;15.32;;;;;;;0.90;100.00;102780.00;5094781;28;20031;-63
2022/01/14 00:02:56;;;;;;;22.77;14.13;;;;;;;0.87;100.00;102771.28;5091878;28;20028;-63
2022/01/14 00:05:22;;;;;;;21.67;13.70;;;;;;;0.85;100.00;102771.22;5093225;28;20032;-62
2022/01/14 00:07:47;;;;;;;28.70;14.55;;;;;;;0.86;100.00;102765.22;5094974;28;20030;-64
2022/01/14 00:10:12;;;;;;;20.58;13.43;;;;;;;0.86;100.00;102772.09;5094866;28;20024;-62
2022/01/14 00:12:46;;;;;;;26.45;13.43;;;;;;;0.83;100.00;102765.16;5094281;28;20081;-63
2022/01/14 00:15:24;;;;;;;49.38;15.63;;;;;;;0.83;100.00;102759.97;5094502;28;20043;-62
2022/01/14 00:17:50;;;;;;;28.65;14.38;;;;;;;0.81;100.00;102755.59;5094981;28;20059;-63
2022/01/14 00:20:15;;;;;;;35.35;15.70;;;;;;;0.80;100.00;102759.88;5094673;28;20023;-62
2022/01/14 00:22:41;;;;;;;39.05;15.98;;;;;;;0.83;100.00;102765.16;5066306;28;20488;-63
2022/01/14 00:33:08;;;;;;;25.63;14.73;;;;;;;0.76;100.00;102752.00;5093780;28;20506;-62
2022/01/14 00:35:41;;;;;;;31.88;14.65;;;;;;;0.75;100.00;102751.09;5094526;28;20020;-63
2022/01/14 00:38:07;;;;;;;61.30;18.83;;;;;;;0.73;100.00;102742.44;5094491;28;20046;-63
2022/01/14 00:40:32;;;;;;;33.33;14.75;;;;;;;0.73;100.00;102734.69;5093370;28;20032;-63
2022/01/14 00:42:58;;;;;;;20.70;14.60;;;;;;;0.71;100.00;102728.56;5075926;28;20032;-63
2022/01/14 00:45:23;;;;;;;47.05;16.65;;;;;;;0.42;100.00;102685.50;5093829;28;20028;-62
2022/01/14 00:47:49;;;;;;;69.25;18.00;;;;;;;0.68;100.00;102728.47;5094173;28;20036;-62
2022/01/14 00:50:15;;;;;;;27.92;14.90;;;;;;;0.68;100.00;102718.13;5109757;28;20089;-62
2022/01/14 00:52:42;;;;;;;50.30;15.95;;;;;;;0.66;100.00;102730.16;5094270;28;20115;-62
2022/01/14 00:55:12;;;;;;;23.42;12.98;;;;;;;0.63;100.00;102724.91;5075791;28;20032;-62
2022/01/14 01:00:24;;;;;;;29.33;15.45;;;;;;;0.59;100.00;102729.94;5093764;28;20543;-62
2022/01/14 01:02:49;;;;;;;30.90;13.02;;;;;;;0.57;100.00;102724.75;5075651;28;20059;-62
2022/01/14 01:05:15;;;;;;;40.88;15.60;;;;;;;0.55;100.00;102720.34;5093578;28;20066;-62
2022/01/14 01:07:43;;;;;;;36.60;14.90;;;;;;;0.53;100.00;102728.06;5093636;28;20081;-62
2022/01/14 01:10:10;;;;;;;21.45;13.45;;;;;;;0.50;100.00;102710.78;5093799;28;20024;-62
2022/01/14 01:12:51;;;;;;;22.13;13.35;;;;;;;0.50;100.00;102717.66;5093586;28;20057;-62
2022/01/14 01:15:17;;;;;;;55.08;16.63;;;;;;;0.47;100.00;102712.41;5072547;28;20024;-62
2022/01/14 01:17:44;;;;;;;29.77;14.32;;;;;;;0.42;100.00;102703.63;5046764;28;20252;-62
2022/01/14 01:20:12;;;;;;;48.78;14.77;;;;;;;0.41;100.00;102709.59;5060469;28;20432;-62
2022/01/14 01:22:38;;;;;;;24.85;14.45;;;;;;;0.37;100.00;102706.06;5078957;28;20024;-62
2022/01/14 01:25:04;;;;;;;38.45;15.90;;;;;;;0.38;100.00;102706.94;5093176;28;20416;-62
2022/01/14 01:27:31;;;;;;;31.98;15.77;;;;;;;0.35;100.00;102699.09;5093328;28;20036;-62
2022/01/14 01:30:12;;;;;;;22.77;15.07;;;;;;;0.31;100.00;102700.72;5093484;28;20036;-63
2022/01/14 01:32:38;;;;;;;41.80;16.25;;;;;;;0.30;100.00;102698.09;5093913;28;20040;-62
2022/01/14 01:35:04;;;;;;;20.70;15.63;;;;;;;0.29;100.00;102693.75;5090712;28;20498;-62
2022/01/14 01:37:29;;;;;;;40.80;15.40;;;;;;;0.27;100.00;102698.03;5093337;28;20028;-63
2022/01/14 01:39:55;;;;;;;87.32;21.85;;;;;;;0.27;100.00;102703.19;5092261;28;20035;-62
2022/01/14 01:42:27;;;;;;;19.83;14.45;;;;;;;0.25;100.00;102691.91;5090746;28;20528;-62
2022/01/14 01:44:52;;;;;;;75.38;18.42;;;;;;;0.26;100.00;102701.44;5093123;28;20101;-63
2022/01/14 01:47:20;;;;;;;59.80;20.58;;;;;;;-0.17;100.00;102622.66;5092932;28;20078;-62
2022/01/14 01:49:45;;;;;;;23.42;15.20;;;;;;;0.23;100.00;102696.19;5093220;28;20077;-62
2022/01/14 01:52:10;;;;;;;44.95;18.55;;;;;;;0.27;100.00;102698.88;5092598;28;20028;-63
2022/01/14 01:54:36;;;;;;;32.65;17.55;;;;;;;0.27;100.00;102700.59;5092851;28;20394;-62
2022/01/14 01:57:01;;;;;;;44.53;18.77;;;;;;;0.04;100.00;102653.41;5093033;28;20028;-62
2022/01/14 01:59:27;;;;;;;35.50;18.65;;;;;;;0.25;100.00;102694.50;5092546;28;20044;-62
2022/01/14 02:04:29;;;;;;;30.33;17.23;;;;;;;0.06;100.00;102663.78;5050520;23;20057;-63
2022/01/14 02:06:56;;;;;;;25.20;17.90;;;;;;;0.20;100.00;102690.91;5010535;28;20034;-63
2022/01/14 02:09:22;;;;;;;23.40;17.88;;;;;;;0.16;100.00;102689.06;5011846;28;20033;-63
2022/01/14 02:11:47;;;;;;;23.80;17.25;;;;;;;0.18;100.00;102698.63;5009648;28;20476;-63
2022/01/14 02:14:41;;;;;;;57.15;20.63;;;;;;;0.15;100.00;102692.47;5012464;28;20040;-63
2022/01/14 02:22:09;;;;;;;42.42;21.23;;;;;;;0.14;100.00;102682.97;5014790;28;20045;-63
2022/01/14 02:22:49;;;;;;;49.28;19.90;;;;;;;0.13;100.00;102684.69;5016420;28;20057;-63
2022/01/14 02:25:16;;;;;;;37.67;20.00;;;;;;;0.08;100.00;102672.47;5014490;28;20113;-63
2022/01/14 02:27:43;;;;;;;29.50;18.80;;;;;;;0.06;100.00;102656.03;5016689;28;20037;-63
2022/01/14 02:30:10;;;;;;;31.27;19.13;;;;;;;0.12;100.00;102672.59;5011141;28;20034;-63
2022/01/14 02:32:35;;;;;;;55.88;22.52;;;;;;;0.10;100.00;102670.81;5015489;28;20033;-63
2022/01/14 02:35:01;;;;;;;34.55;20.35;;;;;;;-0.10;100.00;102637.50;5016466;28;20030;-63
2022/01/14 02:37:26;;;;;;;41.15;20.27;;;;;;;0.07;100.00;102660.38;5015199;28;20033;-63
2022/01/14 02:39:52;;;;;;;91.72;25.10;;;;;;;0.12;100.00;102672.59;5015883;28;20032;-63
2022/01/14 02:42:17;;;;;;;53.85;21.13;;;;;;;0.05;100.00;102655.16;5010808;28;20472;-63
2022/01/14 02:44:43;;;;;;;35.55;19.48;;;;;;;0.08;100.00;102652.66;5012147;28;20651;-63
2022/01/14 02:47:08;;;;;;;53.22;22.98;;;;;;;0.06;100.00;102650.88;4996674;28;20465;-63
2022/01/14 02:49:36;;;;;;;28.00;19.55;;;;;;;0.06;100.00;102656.94;4996699;28;20101;-64
2022/01/14 02:52:04;;;;;;;31.20;19.52;;;;;;;0.10;100.00;102657.91;4996820;28;20452;-63
2022/01/14 02:55:02;;;;;;;45.15;22.00;;;;;;;-0.25;100.00;102593.16;4996420;28;20108;-63
2022/01/14 02:57:26;;;;;;;47.53;21.80;;;;;;;0.09;100.00;102650.97;4996450;28;20042;-63
2022/01/14 02:59:51;;;;;;;31.42;19.15;;;;;;;0.04;100.00;102642.19;5010662;28;20048;-63
2022/01/14 03:02:17;;;;;;;29.50;19.38;;;;;;;0.07;100.00;102656.06;5015441;28;20045;-63
2022/01/14 03:04:43;;;;;;;29.55;20.77;;;;;;;0.04;100.00;102647.34;5016123;28;20042;-63
2022/01/14 03:07:09;;;;;;;33.58;19.55;;;;;;;0.07;100.00;102655.22;5016121;28;20396;-63
2022/01/14 03:09:36;;;;;;;63.25;21.98;;;;;;;0.00;100.00;102642.09;5016307;28;20030;-63
2022/01/14 03:12:02;;;;;;;57.00;22.77;;;;;;;0.09;100.00;102654.44;5015819;28;20022;-63
2022/01/14 03:14:27;;;;;;;57.40;23.25;;;;;;;0.04;100.00;102643.06;5014593;28;20029;-63
2022/01/14 03:16:54;;;;;;;34.78;20.63;;;;;;;0.12;100.00;102651.03;5015520;28;20426;-63
2022/01/14 03:19:24;;;;;;;44.10;22.77;;;;;;;0.13;100.00;102647.63;5016064;28;20042;-63
2022/01/14 03:21:52;;;;;;;29.73;21.38;;;;;;;0.14;100.00;102649.38;5015898;28;20053;-63
2022/01/14 03:27:03;;;;;;;49.35;23.75;;;;;;;0.19;100.00;102640.94;5015954;28;20030;-63
2022/01/14 03:29:29;;;;;;;46.40;25.50;;;;;;;0.24;100.00;102639.34;5015500;28;20088;-63
2022/01/14 03:31:54;;;;;;;55.97;26.15;;;;;;;0.26;100.00;102645.44;5015394;28;20033;-63
2022/01/14 03:34:19;;;;;;;81.60;27.88;;;;;;;0.22;100.00;102632.38;5015592;28;20037;-63
2022/01/14 03:36:45;;;;;;;56.35;27.63;;;;;;;0.28;100.00;102638.59;5015280;28;20030;-63
2022/01/14 03:39:11;;;;;;;49.55;28.58;;;;;;;0.29;100.00;102634.31;5013468;28;20490;-63
2022/01/14 03:41:36;;;;;;;53.97;27.38;;;;;;;0.35;100.00;102634.47;5013519;28;20032;-63
2022/01/14 03:44:02;;;;;;;70.88;26.90;;;;;;;0.22;100.00;102606.53;5014969;28;20060;-63
2022/01/14 03:46:27;;;;;;;73.82;28.08;;;;;;;0.32;100.00;102618.88;5015100;28;20357;-63
2022/01/14 03:48:53;;;;;;;55.03;29.17;;;;;;;0.44;100.00;102632.16;5015212;28;20105;-63
2022/01/14 03:51:19;;;;;;;33.80;25.90;;;;;;;0.45;100.00;102634.75;4987865;28;20030;-63
2022/01/14 03:53:46;;;;;;;54.75;29.35;;;;;;;0.49;100.00;102622.78;5015226;28;20026;-63
2022/01/14 03:56:12;;;;;;;58.95;28.52;;;;;;;0.52;100.00;102620.28;5015037;28;20422;-63
2022/01/14 03:58:37;;;;;;;76.32;31.85;;;;;;;0.53;100.00;102611.69;5014888;28;20038;-63
2022/01/14 04:01:03;;;;;;;67.35;31.98;;;;;;;0.10;100.00;102539.03;5015024;28;20041;-63
2022/01/14 04:03:28;;;;;;;59.30;31.65;;;;;;;0.64;100.00;102620.63;5015188;28;20088;-63
2022/01/14 04:05:54;;;;;;;63.28;32.90;;;;;;;0.70;100.00;102609.53;5014392;28;20041;-63
2022/01/14 04:08:19;;;;;;;62.72;32.92;;;;;;;0.74;100.00;102617.44;5015059;28;20558;-63
2022/01/14 04:10:46;;;;;;;78.35;35.80;;;;;;;0.78;100.00;102606.31;5014895;28;20446;-63
2022/01/14 04:13:18;;;;;;;74.97;33.00;;;;;;;0.77;100.00;102599.41;5014645;28;20036;-63
2022/01/14 04:15:46;;;;;;;50.30;32.58;;;;;;;0.81;100.00;102600.34;5013848;28;20026;-63
2022/01/14 04:18:19;;;;;;;94.88;34.22;;;;;;;0.89;100.00;102604.00;5014127;28;20034;-63
2022/01/14 04:20:47;;;;;;;51.37;32.93;;;;;;;0.91;100.00;102595.41;5014865;28;20029;-63
2022/01/14 04:23:14;;;;;;;65.40;34.20;;;;;;;0.77;100.00;102568.34;5013898;28;20032;-63
2022/01/14 04:25:40;;;;;;;97.88;37.58;;;;;;;0.94;100.00;102599.81;5014439;28;20464;-63
2022/01/14 04:28:06;;;;;;;64.68;33.47;;;;;;;0.99;100.00;102591.31;5014621;28;20026;-63
2022/01/14 04:30:32;;;;;;;71.65;35.60;;;;;;;1.02;100.00;102596.56;5014114;28;20033;-63
2022/01/14 04:32:58;;;;;;;70.35;36.08;;;;;;;0.97;100.00;102571.41;5014427;28;20034;-63
2022/01/14 04:35:24;;;;;;;116.60;42.78;;;;;;;1.12;100.00;102586.41;5014132;28;20076;-63
2022/01/14 04:37:50;;;;;;;75.72;41.45;;;;;;;1.17;100.00;102592.59;5004616;28;20042;-63
2022/01/14 04:40:16;;;;;;;81.32;41.72;;;;;;;1.23;100.00;102579.78;5012063;28;20083;-63
2022/01/14 04:42:42;;;;;;;63.90;44.72;;;;;;;1.28;100.00;102583.38;5013926;28;20030;-63
2022/01/14 04:45:10;;;;;;;85.05;46.22;;;;;;;1.30;100.00;102579.09;5014435;28;20554;-63
2022/01/14 04:47:44;;;;;;;72.38;43.17;;;;;;;1.39;100.00;102584.47;5008797;28;20388;-63
2022/01/14 04:50:14;;;;;;;82.60;47.03;;;;;;;1.42;100.00;102587.16;5014003;28;20034;-63
2022/01/14 04:52:41;;;;;;;84.18;50.22;;;;;;;1.44;100.00;102578.56;5011827;28;20052;-63
2022/01/14 04:55:08;;;;;;;88.80;50.78;;;;;;;1.46;100.00;102582.06;5014290;28;20042;-63
2022/01/14 04:57:34;;;;;;;78.72;50.85;;;;;;;1.44;100.00;102578.56;5013982;28;20021;-63
2022/01/14 04:59:59;;;;;;;87.95;53.40;;;;;;;1.48;100.00;102576.91;5014037;28;20041;-63
2022/01/14 05:02:25;;;;;;;96.75;53.30;;;;;;;1.53;100.00;102577.88;5014082;28;20034;-63
2022/01/14 05:04:53;;;;;;;88.00;51.08;;;;;;;1.59;100.00;102587.53;5013633;28;20041;-63
2022/01/14 05:07:24;;;;;;;87.30;52.83;;;;;;;1.52;100.00;102548.50;5013461;28;20390;-63
2022/01/14 05:10:59;;;;;;;93.63;54.40;;;;;;;1.66;100.00;102569.53;5013608;28;20765;-63
2022/01/14 05:12:40;;;;;;;89.55;53.42;;;;;;;1.65;100.00;102564.34;5010697;28;20045;-63
2022/01/14 05:15:07;;;;;;;91.07;54.53;;;;;;;1.77;100.00;102581.00;5013326;28;20206;-63
2022/01/14 05:17:33;;;;;;;93.85;55.67;;;;;;;1.79;100.00;102570.69;5013642;28;20030;-63
2022/01/14 05:19:58;;;;;;;96.88;54.72;;;;;;;1.77;100.00;102568.03;5013631;28;20030;-63
2022/01/14 05:22:25;;;;;;;94.55;55.20;;;;;;;1.80;100.00;102568.09;5013586;28;20041;-63
2022/01/14 05:24:50;;;;;;;118.63;61.42;;;;;;;1.85;100.00;102579.44;5013432;28;20562;-63
2022/01/14 05:27:16;;;;;;;104.15;59.30;;;;;;;1.84;100.00;102582.00;5013238;28;20037;-63
2022/01/14 05:29:41;;;;;;;92.55;59.47;;;;;;;1.83;100.00;102570.75;5013685;28;20113;-63
2022/01/14 05:32:12;;;;;;;90.75;57.75;;;;;;;1.85;100.00;102573.38;5013649;28;20030;-63
2022/01/14 05:34:38;;;;;;;88.53;54.20;;;;;;;1.47;100.00;102523.38;5013264;28;20464;-63
2022/01/14 05:37:04;;;;;;;95.78;56.80;;;;;;;1.70;100.00;102563.56;5013220;28;20040;-63
2022/01/14 05:39:30;;;;;;;92.63;55.28;;;;;;;1.74;100.00;102590.41;5013447;28;20373;-63
2022/01/14 05:41:56;;;;;;;97.38;54.78;;;;;;;1.64;100.00;102584.19;5013281;28;20056;-63
2022/01/14 05:44:26;;;;;;;89.90;55.70;;;;;;;1.53;100.00;102570.09;5012401;28;20122;-63
2022/01/14 05:46:52;;;;;;;82.05;51.78;;;;;;;1.60;100.00;102582.34;5011061;28;20030;-63
2022/01/14 05:49:17;;;;;;;99.65;50.72;;;;;;;1.58;100.00;102576.28;5013123;28;20045;-63
2022/01/14 05:51:44;;;;;;;82.57;50.15;;;;;;;1.57;100.00;102571.94;5013186;28;20030;-63
2022/01/14 05:54:09;;;;;;;83.63;49.55;;;;;;;1.66;100.00;102592.84;5012233;28;20026;-63
2022/01/14 05:56:35;;;;;;;69.22;48.00;;;;;;;1.55;100.00;102584.00;5012955;28;20029;-63
2022/01/14 05:59:00;;;;;;;84.07;49.47;;;;;;;1.46;100.00;102563.03;5013181;28;20216;-63
2022/01/14 06:01:26;;;;;;;64.00;46.85;;;;;;;1.51;100.00;102571.81;5012251;28;20065;-63
2022/01/14 06:03:51;;;;;;;80.00;47.45;;;;;;;1.30;100.00;102540.25;5013113;28;20037;-63
2022/01/14 06:06:17;;;;;;;79.57;47.67;;;;;;;1.47;100.00;102580.34;5000847;28;20037;-63
2022/01/14 06:08:46;;;;;;;65.88;42.58;;;;;;;1.44;100.00;102577.69;5012906;28;20096;-63
2022/01/14 06:11:12;;;;;;;67.00;44.42;;;;;;;1.44;100.00;102578.56;5012997;28;20059;-63
2022/01/14 06:13:37;;;;;;;66.80;42.63;;;;;;;1.18;100.00;102540.00;5013008;28;20125;-62
2022/01/14 06:16:03;;;;;;;61.95;40.53;;;;;;;1.19;100.00;102546.91;5012504;28;20022;-63
2022/01/14 06:18:28;;;;;;;58.33;41.30;;;;;;;1.11;100.00;102551.91;5013074;28;20132;-62
2022/01/14 06:20:53;;;;;;;65.68;44.13;;;;;;;1.03;100.00;102545.69;5012747;28;20045;-63
2022/01/14 06:23:19;;;;;;;73.43;42.85;;;;;;;0.86;100.00;102503.00;5012708;28;20540;-63
2022/01/14 06:25:44;;;;;;;59.88;39.70;;;;;;;1.01;100.00;102542.19;5012725;28;20029;-62
2022/01/14 06:28:10;;;;;;;63.08;43.00;;;;;;;1.02;100.00;102538.75;5012815;28;20486;-62
2022/01/14 06:30:35;;;;;;;57.15;43.35;;;;;;;0.99;100.00;102539.56;5012145;28;20030;-62
2022/01/14 06:33:00;;;;;;;57.55;40.60;;;;;;;1.11;100.00;102556.22;5012876;28;20030;-62
2022/01/14 06:35:26;;;;;;;77.60;44.38;;;;;;;1.11;100.00;102548.47;5013032;28;20084;-63
2022/01/14 06:37:52;;;;;;;69.43;44.47;;;;;;;1.12;100.00;102550.19;5012801;28;20029;-62
2022/01/14 06:40:17;;;;;;;76.07;44.92;;;;;;;1.09;100.00;102537.16;5012226;28;20026;-62
2022/01/14 06:42:42;;;;;;;65.10;44.25;;;;;;;1.16;100.00;102544.25;5013034;28;20444;-62
2022/01/14 06:45:09;;;;;;;84.80;44.30;;;;;;;1.15;100.00;102539.94;5004448;28;20081;-63
2022/01/14 06:47:34;;;;;;;64.75;47.08;;;;;;;1.07;100.00;102531.97;5012596;28;20058;-63
2022/01/14 06:50:00;;;;;;;61.92;45.05;;;;;;;1.02;100.00;102530.97;5012150;28;20069;-63
2022/01/14 06:52:25;;;;;;;73.85;44.97;;;;;;;1.16;100.00;102541.66;5007670;28;20040;-62
2022/01/14 06:54:50;;;;;;;73.20;45.90;;;;;;;1.13;100.00;102536.41;5012744;28;20072;-63
2022/01/14 06:57:16;;;;;;;73.20;46.83;;;;;;;1.18;100.00;102545.16;5012141;28;20030;-63
2022/01/14 06:59:42;;;;;;;82.15;48.80;;;;;;;1.21;100.00;102551.28;5006598;28;20040;-63
2022/01/14 07:02:09;;;;;;;80.13;51.58;;;;;;;0.86;100.00;102501.31;5012013;28;20038;-63
2022/01/14 07:04:35;;;;;;;94.78;51.75;;;;;;;0.75;100.00;102507.03;5008489;28;20411;-63
2022/01/14 07:07:01;;;;;;;78.28;50.33;;;;;;;0.95;100.00;102558.44;5015594;28;20045;-63
2022/01/14 07:09:27;;;;;;;71.35;44.25;;;;;;;0.83;100.00;102545.22;5016490;28;20045;-63
2022/01/14 07:11:56;;;;;;;76.68;44.70;;;;;;;0.77;100.00;102552.84;5016073;28;20030;-63
2022/01/14 07:14:22;;;;;;;65.20;43.20;;;;;;;0.59;100.00;102551.50;5016180;28;20064;-64
2022/01/14 07:16:47;;;;;;;74.88;44.00;;;;;;;0.50;100.00;102547.84;5015794;28;20041;-63
2022/01/14 07:19:15;;;;;;;72.72;43.60;;;;;;;0.58;100.00;102555.78;5015280;28;20021;-63
2022/01/14 07:21:41;;;;;;;62.25;40.15;;;;;;;0.52;100.00;102555.63;5007695;28;20901;-64
2022/01/14 07:24:06;;;;;;;57.95;41.70;;;;;;;0.46;100.00;102552.91;5014858;28;20041;-62
2022/01/14 07:26:32;;;;;;;66.88;41.10;;;;;;;0.44;100.00;102562.34;5015805;28;20037;-63
2022/01/14 07:28:58;;;;;;;68.05;41.95;;;;;;;0.39;100.00;102563.91;5013939;28;20026;-63
2022/01/14 07:31:23;;;;;;;80.78;43.97;;;;;;;0.30;100.00;102584.38;5015426;28;20053;-63
2022/01/14 07:33:48;;;;;;;72.95;46.03;;;;;;;0.26;100.00;102561.84;5014454;28;20033;-63
2022/01/14 07:36:14;;;;;;;74.57;44.80;;;;;;;0.22;100.00;102583.28;5010772;28;20065;-62
2022/01/14 07:38:39;;;;;;;60.35;41.92;;;;;;;-0.07;100.00;102552.31;5010278;28;20129;-63
2022/01/14 07:41:05;;;;;;;54.70;38.25;;;;;;;0.02;100.00;102577.56;5012804;28;20030;-63
2022/01/14 07:43:30;;;;;;;65.88;40.78;;;;;;;-0.03;100.00;102590.34;5008567;28;20396;-63
2022/01/14 07:45:56;;;;;;;55.42;39.35;;;;;;;-0.18;100.00;102574.41;5013505;28;20052;-63
2022/01/14 07:48:21;;;;;;;58.85;40.15;;;;;;;-0.13;100.00;102584.88;5014660;28;20656;-63
2022/01/14 07:50:47;;;;;;;67.03;40.83;;;;;;;-0.19;100.00;102577.81;5014797;28;20057;-63
2022/01/14 07:53:13;;;;;;;73.35;41.55;;;;;;;-0.28;100.00;102551.75;5008886;28;20041;-63
2022/01/14 07:55:38;;;;;;;57.20;38.08;;;;;;;-0.21;100.00;102584.66;5013633;28;20062;-63
2022/01/14 07:58:04;;;;;;;60.05;37.13;;;;;;;-0.34;100.00;102582.56;5013641;28;20432;-63
2022/01/14 08:00:30;;;;;;;65.65;38.42;;;;;;;-0.51;100.00;102557.97;5014219;28;20045;-63
2022/01/14 08:02:56;;;;;;;56.65;40.42;;;;;;;-0.39;100.00;102584.13;5014468;28;20041;-63
2022/01/14 08:05:22;;;;;;;54.10;37.15;;;;;;;-0.37;100.00;102584.19;5014078;28;20092;-63
2022/01/14 08:07:50;;;;;;;61.97;37.90;;;;;;;-0.46;100.00;102571.84;5007837;28;20415;-64
2022/01/14 08:10:16;;;;;;;67.28;39.97;;;;;;;-0.51;100.00;102574.28;5014803;28;20415;-63
2022/01/14 08:12:42;;;;;;;57.30;38.92;;;;;;;-0.53;100.00;102568.22;5013510;28;20026;-63
2022/01/14 08:15:09;;;;;;;64.57;39.70;;;;;;;-0.41;100.00;102584.91;5014104;28;20037;-63
2022/01/14 08:17:34;;;;;;;68.07;40.47;;;;;;;-0.42;100.00;102573.72;5013299;28;20440;-63
2022/01/14 08:20:00;;;;;;;63.67;41.15;;;;;;;-0.37;100.00;102579.88;5014284;28;20061;-63
2022/01/14 08:22:25;;;;;;;70.68;43.10;;;;;;;-0.27;100.00;102575.88;5014591;28;20022;-63
2022/01/14 08:24:50;;;;;;;80.57;48.13;;;;;;;-0.22;100.00;102587.19;5013504;28;20353;-63
2022/01/14 08:27:16;;;;;;;72.90;45.83;;;;;;;-0.13;100.00;102574.53;5004934;28;20030;-63
2022/01/14 08:29:41;;;;;;;77.43;49.33;;;;;;;-0.07;100.00;102578.16;4990672;28;20072;-63
2022/01/14 08:32:07;;;;;;;78.38;50.75;;;;;;;-0.41;100.00;102492.84;4994234;28;20031;-63
2022/01/14 08:34:33;;;;;;;85.00;50.90;;;;;;;0.16;100.00;102570.19;4989370;28;20504;-63
2022/01/14 08:36:58;;;;;;;72.45;49.15;;;;;;;0.24;100.00;102579.00;5012851;28;20034;-63
2022/01/14 08:39:24;;;;;;;72.28;49.00;;;;;;;0.09;100.00;102542.44;5013916;28;20030;-63
2022/01/14 08:41:50;;;;;;;79.57;52.78;;;;;;;0.36;100.00;102576.75;4987921;28;20044;-63
2022/01/14 08:44:16;;;;;;;76.40;53.60;;;;;;;0.52;100.00;102576.31;4972305;28;20034;-62
2022/01/14 08:46:42;;;;;;;82.53;52.97;;;;;;;0.65;100.00;102586.13;4987118;28;20036;-63
2022/01/14 08:49:09;;;;;;;85.57;54.28;;;;;;;0.72;100.00;102558.72;4999624;28;20037;-63
2022/01/14 08:51:36;;;;;;;77.47;53.28;;;;;;;0.76;100.00;102543.31;4999601;28;20072;-63
2022/01/14 08:54:02;;;;;;;83.72;51.90;;;;;;;1.07;100.00;102569.91;4999284;28;20026;-63
2022/01/14 08:56:30;;;;;;;82.55;57.50;;;;;;;1.14;100.00;102558.88;4999831;28;20040;-63
2022/01/14 08:58:55;;;;;;;87.30;55.20;;;;;;;1.24;100.00;102566.00;5003098;28;20057;-63
2022/01/14 09:01:20;;;;;;;85.20;54.65;;;;;;;1.23;100.00;102554.78;4998448;28;20387;-63
2022/01/14 09:03:46;;;;;;;90.22;54.55;;;;;;;1.33;100.00;102568.78;4994234;28;20037;-64
2022/01/14 09:06:11;;;;;;;81.75;54.28;;;;;;;0.82;100.00;102463.25;4997623;28;20886;-63
2022/01/14 09:08:37;;;;;;;88.78;52.22;;;;;;;1.52;100.00;102566.63;5001251;28;20053;-63
2022/01/14 09:11:02;;;;;;;86.05;53.85;;;;;;;1.49;100.00;102556.22;4999137;28;20029;-63
2022/01/14 09:13:28;;;;;;;92.65;55.08;;;;;;;1.65;100.00;102575.56;4997884;28;20037;-63
2022/01/14 09:15:53;;;;;;;84.55;54.28;;;;;;;1.70;100.00;102573.06;4996582;28;20685;-63
2022/01/14 09:18:18;;;;;;;74.40;51.90;;;;;;;1.64;100.00;102557.38;4995441;28;20923;-63
2022/01/14 09:20:44;;;;;;;101.03;53.35;;;;;;;1.62;100.00;102559.97;4993238;28;20033;-63
2022/01/14 09:23:15;;;;;;;85.68;54.00;;;;;;;1.36;100.00;102509.31;4996151;28;20041;-63
2022/01/14 09:25:40;;;;;;;80.68;51.83;;;;;;;1.42;100.00;102506.88;5001525;28;20041;-63
2022/01/14 09:28:06;;;;;;;85.97;54.20;;;;;;;1.71;100.00;102560.16;5005791;28;20042;-65
2022/01/14 09:30:31;;;;;;;101.20;55.05;;;;;;;1.75;100.00;102559.38;4995899;28;20091;-64
2022/01/14 09:32:57;;;;;;;75.90;53.67;;;;;;;1.79;100.00;102566.34;4993319;28;20589;-64
2022/01/14 09:35:23;;;;;;;80.43;53.25;;;;;;;1.84;100.00;102556.97;4996934;28;20026;-64
2022/01/14 09:37:50;;;;;;;80.68;55.40;;;;;;;1.85;100.00;102548.34;4987980;28;20029;-63
2022/01/14 09:40:17;;;;;;;84.28;55.88;;;;;;;2.02;100.00;102559.94;4986813;28;20033;-63
2022/01/14 09:42:49;;;;;;;86.53;56.75;;;;;;;2.15;100.00;102567.94;5000734;28;20022;-63
2022/01/14 09:45:15;;;;;;;92.40;55.85;;;;;;;2.22;100.00;102549.94;4996352;28;20025;-62
2022/01/14 09:47:42;;;;;;;88.63;58.85;;;;;;;2.33;100.00;102552.72;4998944;28;20040;-63
2022/01/14 09:50:08;;;;;;;81.90;57.08;;;;;;;2.38;100.00;102545.88;4994860;28;20772;-63
2022/01/14 09:52:35;;;;;;;96.43;59.38;;;;;;;2.56;100.00;102543.63;4999093;28;20030;-63
2022/01/14 09:55:01;;;;;;;98.97;59.60;;;;;;;2.68;100.00;102541.22;4998943;28;20040;-63
2022/01/14 09:57:26;;;;;;;102.82;61.38;;;;;;;2.79;100.00;102547.47;4998343;28;20041;-63
2022/01/14 09:59:51;;;;;;;104.57;60.75;;;;;;;2.80;100.00;102538.84;4999211;28;20040;-63
2022/01/14 10:02:29;;;;;;;90.78;60.67;;;;;;;2.79;100.00;102552.66;5000246;28;20079;-63
2022/01/14 10:04:54;;;;;;;106.53;61.45;;;;;;;2.81;100.00;102556.13;4998921;28;20069;-63
2022/01/14 10:07:20;;;;;;;95.90;61.25;;;;;;;2.86;100.00;102551.91;5002231;28;20121;-63
2022/01/14 10:09:53;;;;;;;92.68;57.60;;;;;;;2.86;100.00;102551.91;5000485;28;20034;-64
2022/01/14 10:12:20;;;;;;;95.18;56.05;;;;;;;2.88;100.00;102547.59;4996491;28;20033;-63
2022/01/14 10:14:56;;;;;;;93.35;57.55;;;;;;;3.02;100.00;102561.69;4993603;28;20033;-63
2022/01/14 10:17:22;;;;;;;84.95;56.97;;;;;;;3.16;100.00;102553.22;4992477;28;20124;-63
2022/01/14 10:19:50;;;;;;;83.40;55.85;;;;;;;2.82;100.00;102456.66;4994523;28;20029;-63
2022/01/14 10:22:30;;;;;;;93.45;55.38;;;;;;;3.33;100.00;102533.56;4994499;28;20435;-63
2022/01/14 10:24:57;;;;;;;94.82;55.67;;;;;;;3.03;100.00;102487.25;4995341;28;20551;-63
2022/01/14 10:27:52;;;;;;;82.03;55.67;;;;;;;3.53;100.00;102547.69;4994700;28;20617;-63
2022/01/14 10:30:23;;;;;;;93.18;55.00;;;;;;;3.67;100.00;102547.88;4993505;28;20161;-63
2022/01/14 10:32:58;;;;;;;79.22;51.97;;;;;;;3.76;100.00;102543.66;4988673;28;20830;-63
2022/01/14 10:35:27;;;;;;;73.50;48.30;;;;;;;3.87;100.00;102547.25;4995856;28;20124;-63
2022/01/14 10:37:59;;;;;;;75.90;49.85;;;;;;;3.83;100.00;102532.47;4996994;28;20037;-63
2022/01/14 10:40:28;;;;;;;77.57;46.92;;;;;;;3.87;100.00;102555.06;5002607;28;20128;-63
2022/01/14 10:43:00;;;;;;;71.25;46.00;;;;;;;3.86;100.00;102557.63;5006440;28;20034;-63
2022/01/14 10:45:28;;;;;;;61.40;45.60;;;;;;;3.84;100.00;102574.94;5003274;28;20076;-63
2022/01/14 10:48:03;;;;;;;58.30;42.67;;;;;;;3.86;100.00;102557.63;5002763;28;20785;-63
2022/01/14 10:50:46;;;;;;;66.88;45.50;;;;;;;4.06;100.00;102567.41;5003052;28;20030;-63
2022/01/14 10:53:23;;;;;;;70.72;44.67;;;;;;;4.25;100.00;102565.03;5007068;28;20034;-63
2022/01/14 10:55:53;;;;;;;61.47;42.85;;;;;;;4.22;100.00;102560.66;4996369;28;20073;-63
2022/01/14 10:58:39;;;;;;;55.95;40.38;;;;;;;4.17;100.00;102570.13;4991414;28;20038;-63
2022/01/14 11:01:06;;;;;;;62.50;41.30;;;;;;;4.20;100.00;102574.50;4997039;28;20045;-63
2022/01/14 11:03:37;;;;;;;67.63;42.40;;;;;;;4.32;100.00;102569.44;5000444;28;20097;-64
2022/01/14 11:06:22;;;;;;;53.17;36.60;;;;;;;4.39;100.00;102564.31;4998343;28;20073;-64
2022/01/14 11:08:54;;;;;;;60.15;36.35;;;;;;;4.37;100.00;102562.53;5003263;28;20050;-63
2022/01/14 11:11:19;;;;;;;51.38;36.17;;;;;;;4.40;100.00;102557.34;5000809;28;20816;-63
2022/01/14 11:13:45;;;;;;;54.17;35.78;;;;;;;4.37;100.00;102558.22;4991857;28;20108;-63
2022/01/14 11:16:10;;;;;;;49.05;35.90;;;;;;;4.08;100.00;102492.91;4981556;28;20034;-63
2022/01/14 11:18:37;;;;;;;58.10;36.47;;;;;;;4.39;100.00;102521.81;4983492;28;20053;-63
2022/01/14 11:23:46;;;;;;;57.27;37.03;;;;;;;4.85;100.00;102536.94;4981725;28;20153;-63
2022/01/14 11:26:16;;;;;;;49.20;33.55;;;;;;;5.10;100.00;102546.66;4990094;28;20033;-63
2022/01/14 11:28:43;;;;;;;55.65;34.38;;;;;;;5.27;100.00;102540.72;4982284;28;20076;-64
2022/01/14 11:31:32;;;;;;;41.15;30.80;;;;;;;5.42;100.00;102540.78;4985388;28;20032;-63